Pagina principale
METAR-TAF:

METAR-TAF

Aeroporti :

Morlaix, Francia

latitudine: 48-36N, longitudine: 3-49W, altezza: 84 m

Osservazione

Il bollettino è stato emesso 9 ore e 16 minuti fa, alle 18:00 UTC
Vento 11 kt da ovest/sud-ovest
Temperature 12°C
Umidità 94%
Pressione 1026 hPa
Visibilità: 2700 m
Cielo coperto ad un'altezza di 400 ft
foschia

METAR: LFRU 231800Z AUTO 25011KT 2700 BR OVC004 12/11 Q1026

Ora: 04:16 (03:16 UTC)


TAF: mancante

Osservazioni e previsioni meteorologiche di più di 4000 aeroporti (messaggi METAR e TAF).

Le stazioni disponibili sono rappresentate dai dischi gialli e rossi sulla carta.

Puntare il mouse per vedere il nome della stazione.

Clicca sopra per visualizzare le osservazioni e previsioni meteorologiche.

Per cambiare la mappa : fare clic sui pulsanti verdi con una croce nera per ingrandire, il pulsante verde con un trattino per diminuire, o sulla freccia verde per le mappe adiacenti.


METAR-TAF: